Arvada, CO

12:18 PM MDT on April 26, 2015 (GMT -0600)
Denver | | Change Station
CLOSE
Current Station
Airport
Location: Denver,
Elevation: 5430 ft
Nearby Weather Stations

Elev 5430 ft 39.85 °N, 104.66 °W | Updated 25 minutes ago

Rain
Rain
43 °F
Feels Like 35 °F
N
15
Wind Variable Wind from ENE

Today
High -- | Low -- °F
--% Chance of Precip.
Yesterday
High -- | Low -- °F
Precip. -- in
6:07 AM 7:49 PM
First Quarter, 57% visible
Pressure 29.87 in
Visibility 2.0 miles
Clouds Mostly Cloudy 500 ft
Overcast 1300 ft
Windchill 35 °F
Dew Point 43 °F
Humidity 100%
Rainfall 0.36 in
Snow Depth Not available.
UV 3 out of 12
Pollen 3.10 out of 12
Air Quality Not available.
Flu Activity Sporadic
METAR KDEN 261753Z 06013KT 2SM -RA BR BKN005 OVC013 06/06 A2987

More Conditions Fewer Conditions

Pressure 29.87 in
Visibility 2.0 miles
Clouds Mostly Cloudy 500 ft
Overcast 1300 ft
Windchill 35 °F
Dew Point 43 °F
Humidity 100%
Rainfall 0.36 in
Snow Depth Not available.
UV 3 out of 12
Pollen 3.10 out of 12
Air Quality Not available.
Flu Activity Sporadic
METAR KDEN 261753Z 06013KT 2SM -RA BR BKN005 OVC013 06/06 A2987

More Conditions Fewer Conditions

The full scope of the disaster following a powerful 7.8-magnitude earthquake in Nepal may not come into view for days, but global charities are already sending emergency aid. Click to see how you can help.

10-Day Weather Forecast

Almanac

Astronomy

Apr. 26, 2015 Rise Set
Actual Time
Civil Twilight
Nautical Twilight
Astronomical Twilight
Moon
Length of Visible Light
Length of Day
Tomorrow will be .
, % of the Moon is Illuminated

Today's Extremes

State Highs State Lows

Community

WunderPhotos

Upload Photos

1,817,080 photos uploaded!

WunderBlogs® & News

Nearby

Air Quality

  Air Quality AQ Index Pollutant
Not available.

Snow Depth

Station Depth Elevation

Earthquake Activity

City Distance Mag. Time & Date
Minimum magnitude displayed is 2.5.

Coastal Water Temperatures

Place Temperature

Stations

Nearby Weather Stations

Station Location Temp. Windchill Dew Point Humidity Wind Precip. Elev Updated Type